Delray Beach, FL

2:19 AM EDT on August 29, 2014 (GMT -0400)
Pompano Beach | Change Station
CLOSE
Current Station
Airport
Location: Pompano Beach,
Elevation: 20 ft
Nearby Weather Stations

Elev 20 ft 26.25 °N, 80.11 °W | Updated 26 minutes ago

Clear
Clear
85 °F
Feels Like 94 °F
N
5
Wind Variable Wind from South

Today
High -- | Low -- °F
--% Chance of Precip.
Yesterday
High -- | Low -- °F
Precip. -- in
6:58 AM 7:43 PM
Waxing Crescent, 12% visible
Pressure 30.01 in
Visibility 10.0 miles
Clouds Clear
Heat Index 94 °F
Dew Point 76 °F
Humidity 74%
Rainfall 0.00 in
Snow Depth Not available.
UV 0 out of 12
Pollen 5.00 out of 12
Air Quality Not available.
Flu Activity Not available.
METAR KPMP 290553Z AUTO 17004KT 10SM CLR 29/24 A3001 RMK AO2 SLP161 T02940244 10300 20278 58009

More Conditions Fewer Conditions

Pressure 30.01 in
Visibility 10.0 miles
Clouds Clear
Heat Index 94 °F
Dew Point 76 °F
Humidity 74%
Rainfall 0.00 in
Snow Depth Not available.
UV 0 out of 12
Pollen 5.00 out of 12
Air Quality Not available.
Flu Activity Not available.
METAR KPMP 290553Z AUTO 17004KT 10SM CLR 29/24 A3001 RMK AO2 SLP161 T02940244 10300 20278 58009

More Conditions Fewer Conditions

10-Day Weather Forecast

Almanac

Astronomy

Aug. 29, 2014 Rise Set
Actual Time 6:58 AM EDT 7:43 PM EDT
Civil Twilight 6:35 AM EDT 8:06 PM EDT
Nautical Twilight 6:07 AM EDT 8:34 PM EDT
Astronomical Twilight 5:39 AM EDT 9:02 PM EDT
Moon 10:21 AM EDT 10:07 PM EDT
Length of Visible Light 13h 31m
Length of Day
12h 44m
Tomorrow will be 1m 28s shorter.
Waxing Crescent, 12% of the Moon is Illuminated
Today
Waxing Crescent
Sep 2
First Quarter
Sep 8
Full
Sep 15
Last Quarter
Sep 24
New

Today's Extremes

State Highs State Lows

Community

WunderPhotos

Upload Photos

1,748,197 photos uploaded!

Nearby

Air Quality

  Air Quality AQ Index Pollutant
Friday Good
OZONE
Friday Good
PM2.5

Snow Depth

Station Depth Elevation
No new snow has been reported.

Earthquake Activity

City Distance Mag. Time & Date
No recent earthquake activity has been reported nearby.
Minimum magnitude displayed is 2.5.

Coastal Water Temperatures

Place Temperature
Lake Worth, FL 87.1 °F
Virginia Key, FL 87.1 °F

Nearby Weather Stations